RYR4QK LHBP-EGGD
Flight info
| Callsign | RYR4QK |
|---|---|
| Flight time | 2h 21m |
| Altitude | 34000 |
| Route | GILEP DCT ZOLKU DCT BEGLA DCT DITIS DCT RAPET DCT MASEK DCT ARPEG DCT GALSO Q63 ERING L179 ICTAM |
| Aircraft | B738/M-SDE2E3FGHIRWXY/LB1 |
Departure
| Time | 2026-05-05 18:10 |
|---|---|
| Airport | Budapest Liszt Ferenc International Airport (LHBP) |
Arrival
| Time | 2026-05-05 20:31 |
|---|---|
| Airport | Bristol Airport (EGGD) |
| Time | Latitude | Longitude | Altitude | Speed | Heading |
|---|---|---|---|---|---|
| 2026-05-05 17:05 | 47.43509 | 19.26476 | 456 ft | 0 kts | 222° |
| 2026-05-05 17:11 | 47.43510 | 19.26476 | 456 ft | 0 kts | 222° |
| 2026-05-05 17:22 | 47.43510 | 19.26477 | 456 ft | 0 kts | 222° |
| 2026-05-05 17:49 | 47.43509 | 19.26476 | 456 ft | 0 kts | 222° |
| 2026-05-05 18:02 | 47.43513 | 19.26482 | 457 ft | 2 kts | 222° |
| 2026-05-05 18:02 | 47.43525 | 19.26498 | 457 ft | 2 kts | 222° |
| 2026-05-05 18:03 | 47.43538 | 19.26514 | 457 ft | 2 kts | 224° |
| 2026-05-05 18:03 | 47.43548 | 19.26533 | 455 ft | 2 kts | 258° |
| 2026-05-05 18:03 | 47.43547 | 19.26550 | 455 ft | 1 kts | 311° |
| 2026-05-05 18:03 | 47.43544 | 19.26555 | 457 ft | 0 kts | 316° |
| 2026-05-05 18:06 | 47.43544 | 19.26556 | 457 ft | 0 kts | 316° |
| 2026-05-05 18:06 | 47.43562 | 19.26524 | 457 ft | 9 kts | 310° |
| 2026-05-05 18:06 | 47.43622 | 19.26424 | 457 ft | 15 kts | 314° |
| 2026-05-05 18:07 | 47.43705 | 19.26368 | 457 ft | 15 kts | 33° |
| 2026-05-05 18:07 | 47.43793 | 19.26406 | 456 ft | 14 kts | 326° |
| 2026-05-05 18:07 | 47.43864 | 19.26302 | 457 ft | 14 kts | 314° |
| 2026-05-05 18:07 | 47.43937 | 19.26211 | 457 ft | 14 kts | 355° |
| 2026-05-05 18:08 | 47.43995 | 19.26262 | 459 ft | 0 kts | 41° |
| 2026-05-05 18:08 | 47.44002 | 19.26272 | 459 ft | 7 kts | 41° |
| 2026-05-05 18:09 | 47.44060 | 19.26387 | 467 ft | 17 kts | 70° |
| 2026-05-05 18:09 | 47.44041 | 19.26561 | 467 ft | 19 kts | 128° |
| 2026-05-05 18:09 | 47.43938 | 19.26733 | 467 ft | 44 kts | 133° |
| 2026-05-05 18:09 | 47.43528 | 19.27394 | 471 ft | 126 kts | 133° |
| 2026-05-05 18:10 | 47.42780 | 19.28578 | 650 ft | 175 kts | 138° |
| 2026-05-05 18:10 | 47.41940 | 19.29878 | 1548 ft | 177 kts | 136° |
| 2026-05-05 18:10 | 47.41219 | 19.31416 | 2440 ft | 191 kts | 122° |
| 2026-05-05 18:10 | 47.40578 | 19.33284 | 2897 ft | 218 kts | 121° |
| 2026-05-05 18:11 | 47.39863 | 19.35369 | 3137 ft | 241 kts | 121° |
| 2026-05-05 18:11 | 47.39066 | 19.37596 | 3715 ft | 248 kts | 122° |
| 2026-05-05 18:11 | 47.38118 | 19.39774 | 4261 ft | 258 kts | 142° |
| 2026-05-05 18:11 | 47.36544 | 19.40945 | 4999 ft | 255 kts | 174° |
| 2026-05-05 18:12 | 47.34804 | 19.40721 | 5848 ft | 254 kts | 202° |
| 2026-05-05 18:12 | 47.33357 | 19.39241 | 6658 ft | 257 kts | 227° |
| 2026-05-05 18:12 | 47.32329 | 19.37060 | 7505 ft | 261 kts | 237° |
| 2026-05-05 18:12 | 47.31443 | 19.34700 | 8320 ft | 264 kts | 239° |
| 2026-05-05 18:13 | 47.30586 | 19.32327 | 9133 ft | 267 kts | 238° |
| 2026-05-05 18:13 | 47.29706 | 19.29899 | 9972 ft | 269 kts | 238° |
| 2026-05-05 18:13 | 47.28792 | 19.27415 | 10400 ft | 286 kts | 238° |
| 2026-05-05 18:13 | 47.27791 | 19.24734 | 10581 ft | 310 kts | 238° |
| 2026-05-05 18:14 | 47.26727 | 19.21894 | 11066 ft | 321 kts | 238° |
| 2026-05-05 18:14 | 47.25636 | 19.18993 | 11741 ft | 326 kts | 238° |
| 2026-05-05 18:14 | 47.24531 | 19.16062 | 12489 ft | 329 kts | 238° |
| 2026-05-05 18:14 | 47.23403 | 19.13085 | 13198 ft | 334 kts | 238° |
| 2026-05-05 18:15 | 47.22262 | 19.10081 | 13876 ft | 339 kts | 238° |
| 2026-05-05 18:15 | 47.21125 | 19.07067 | 14483 ft | 344 kts | 242° |
| 2026-05-05 18:15 | 47.20435 | 19.03668 | 15084 ft | 353 kts | 262° |
| 2026-05-05 18:15 | 47.20615 | 19.00041 | 15762 ft | 360 kts | 282° |
| 2026-05-05 18:16 | 47.21621 | 18.96636 | 16417 ft | 368 kts | 302° |
| 2026-05-05 18:16 | 47.23158 | 18.93601 | 17113 ft | 371 kts | 306° |
| 2026-05-05 18:16 | 47.24779 | 18.90616 | 17777 ft | 375 kts | 307° |
| 2026-05-05 18:16 | 47.26435 | 18.87604 | 18392 ft | 378 kts | 307° |
| 2026-05-05 18:17 | 47.28082 | 18.84586 | 18968 ft | 380 kts | 307° |
| 2026-05-05 18:17 | 47.29708 | 18.81573 | 19540 ft | 382 kts | 306° |
| 2026-05-05 18:17 | 47.31364 | 18.78476 | 20100 ft | 384 kts | 306° |
| 2026-05-05 18:17 | 47.33021 | 18.75358 | 20655 ft | 387 kts | 306° |
| 2026-05-05 18:18 | 47.34685 | 18.72217 | 21208 ft | 389 kts | 306° |
| 2026-05-05 18:18 | 47.36338 | 18.69090 | 21722 ft | 392 kts | 306° |
| 2026-05-05 18:18 | 47.38024 | 18.65900 | 22250 ft | 395 kts | 306° |
| 2026-05-05 18:18 | 47.39720 | 18.62685 | 22768 ft | 398 kts | 306° |
| 2026-05-05 18:19 | 47.41372 | 18.59379 | 23250 ft | 400 kts | 298° |
| 2026-05-05 18:19 | 47.42428 | 18.55596 | 23698 ft | 399 kts | 285° |
| 2026-05-05 18:19 | 47.43203 | 18.51648 | 24148 ft | 400 kts | 284° |
| 2026-05-05 18:19 | 47.43962 | 18.47673 | 24564 ft | 403 kts | 284° |
| 2026-05-05 18:20 | 47.44724 | 18.43739 | 24963 ft | 405 kts | 285° |
| 2026-05-05 18:20 | 47.45517 | 18.39729 | 25360 ft | 407 kts | 285° |
| 2026-05-05 18:20 | 47.46325 | 18.35702 | 25762 ft | 409 kts | 285° |
| 2026-05-05 18:20 | 47.47143 | 18.31648 | 26166 ft | 411 kts | 285° |
| 2026-05-05 18:21 | 47.47963 | 18.27580 | 26554 ft | 413 kts | 285° |
| 2026-05-05 18:21 | 47.48762 | 18.23486 | 26926 ft | 415 kts | 283° |
| 2026-05-05 18:21 | 47.49462 | 18.19388 | 27287 ft | 417 kts | 282° |
| 2026-05-05 18:21 | 47.50129 | 18.15215 | 27651 ft | 419 kts | 282° |
| 2026-05-05 18:22 | 47.50799 | 18.10986 | 28007 ft | 421 kts | 282° |
| 2026-05-05 18:22 | 47.51476 | 18.06753 | 28353 ft | 423 kts | 282° |
| 2026-05-05 18:22 | 47.52165 | 18.02496 | 28697 ft | 425 kts | 282° |
| 2026-05-05 18:22 | 47.52860 | 17.98239 | 29045 ft | 427 kts | 282° |
| 2026-05-05 18:23 | 47.53561 | 17.93953 | 29355 ft | 429 kts | 282° |
| 2026-05-05 18:23 | 47.54256 | 17.89701 | 29661 ft | 431 kts | 282° |
| 2026-05-05 18:23 | 47.54962 | 17.85362 | 29969 ft | 433 kts | 282° |
| 2026-05-05 18:23 | 47.55820 | 17.81066 | 30214 ft | 436 kts | 289° |
| 2026-05-05 18:24 | 47.57101 | 17.76983 | 30462 ft | 440 kts | 298° |
| 2026-05-05 18:24 | 47.58664 | 17.73064 | 30728 ft | 441 kts | 299° |
| 2026-05-05 18:24 | 47.60235 | 17.69216 | 31045 ft | 441 kts | 299° |
| 2026-05-05 18:24 | 47.61817 | 17.65340 | 31473 ft | 438 kts | 299° |
| 2026-05-05 18:25 | 47.63381 | 17.61478 | 31854 ft | 436 kts | 298° |
| 2026-05-05 18:25 | 47.64399 | 17.58943 | 32051 ft | 436 kts | 298° |
| 2026-05-05 18:25 | 47.66446 | 17.53803 | 32426 ft | 436 kts | 298° |
| 2026-05-05 18:25 | 47.67959 | 17.49984 | 32752 ft | 435 kts | 298° |
| 2026-05-05 18:26 | 47.69439 | 17.46237 | 33077 ft | 433 kts | 298° |
| 2026-05-05 18:26 | 47.70929 | 17.42459 | 33391 ft | 433 kts | 298° |
| 2026-05-05 18:26 | 47.72395 | 17.38735 | 33700 ft | 432 kts | 298° |
| 2026-05-05 18:26 | 47.73915 | 17.34867 | 33853 ft | 434 kts | 298° |
| 2026-05-05 18:27 | 47.75421 | 17.31031 | 33842 ft | 438 kts | 298° |
| 2026-05-05 18:27 | 47.78455 | 17.23293 | 33824 ft | 438 kts | 298° |
| 2026-05-05 18:28 | 47.82993 | 17.11750 | 33821 ft | 430 kts | 300° |
| 2026-05-05 18:28 | 47.86680 | 17.04709 | 33814 ft | 429 kts | 307° |
| 2026-05-05 18:29 | 47.90482 | 16.97945 | 33821 ft | 432 kts | 307° |
| 2026-05-05 18:29 | 47.94312 | 16.91070 | 33804 ft | 438 kts | 307° |
| 2026-05-05 18:30 | 47.98203 | 16.84011 | 33791 ft | 441 kts | 307° |
| 2026-05-05 18:30 | 48.02069 | 16.76952 | 33776 ft | 443 kts | 306° |
| 2026-05-05 18:31 | 48.05922 | 16.69902 | 33777 ft | 443 kts | 306° |
| 2026-05-05 18:31 | 48.09798 | 16.62791 | 33777 ft | 442 kts | 307° |
| 2026-05-05 18:32 | 48.13429 | 16.56115 | 33772 ft | 441 kts | 307° |
| 2026-05-05 18:32 | 48.17120 | 16.49306 | 33781 ft | 439 kts | 306° |
| 2026-05-05 18:33 | 48.20867 | 16.42367 | 33778 ft | 439 kts | 306° |
| 2026-05-05 18:33 | 48.24690 | 16.35281 | 33755 ft | 438 kts | 306° |
| 2026-05-05 18:34 | 48.28526 | 16.28154 | 33759 ft | 438 kts | 306° |
| 2026-05-05 18:34 | 48.32326 | 16.21072 | 33740 ft | 438 kts | 306° |
| 2026-05-05 18:35 | 48.36147 | 16.13929 | 33735 ft | 438 kts | 306° |
| 2026-05-05 18:35 | 48.39961 | 16.06783 | 33734 ft | 438 kts | 306° |
| 2026-05-05 18:36 | 48.43781 | 15.99608 | 33730 ft | 439 kts | 306° |
| 2026-05-05 18:36 | 48.47585 | 15.92441 | 33721 ft | 440 kts | 306° |
| 2026-05-05 18:37 | 48.51408 | 15.85219 | 33716 ft | 441 kts | 306° |
| 2026-05-05 18:37 | 48.55216 | 15.78008 | 33718 ft | 441 kts | 306° |
| 2026-05-05 18:38 | 48.59048 | 15.70731 | 33724 ft | 442 kts | 306° |
| 2026-05-05 18:38 | 48.62853 | 15.63486 | 33721 ft | 442 kts | 306° |
| 2026-05-05 18:39 | 48.66676 | 15.56187 | 33710 ft | 442 kts | 306° |
| 2026-05-05 18:39 | 48.70506 | 15.48854 | 33725 ft | 442 kts | 306° |
| 2026-05-05 18:40 | 48.74293 | 15.41583 | 33707 ft | 442 kts | 306° |
| 2026-05-05 18:40 | 48.77458 | 15.35492 | 33707 ft | 442 kts | 306° |
| 2026-05-05 18:41 | 48.81258 | 15.28159 | 33709 ft | 442 kts | 306° |
| 2026-05-05 18:41 | 48.85052 | 15.20817 | 33716 ft | 442 kts | 306° |
| 2026-05-05 18:42 | 48.88849 | 15.13453 | 33724 ft | 441 kts | 306° |
| 2026-05-05 18:42 | 48.92562 | 15.06080 | 33712 ft | 441 kts | 304° |
| 2026-05-05 18:43 | 48.96219 | 14.98548 | 33724 ft | 441 kts | 304° |
| 2026-05-05 18:43 | 48.99844 | 14.91050 | 33723 ft | 442 kts | 304° |
| 2026-05-05 18:44 | 49.03498 | 14.83501 | 33723 ft | 442 kts | 304° |
| 2026-05-05 18:44 | 49.07155 | 14.75942 | 33734 ft | 443 kts | 304° |
| 2026-05-05 18:45 | 49.10813 | 14.68365 | 33738 ft | 443 kts | 304° |
| 2026-05-05 18:45 | 49.14449 | 14.60814 | 33741 ft | 443 kts | 303° |
| 2026-05-05 18:46 | 49.18096 | 14.53216 | 33742 ft | 443 kts | 303° |
| 2026-05-05 18:46 | 49.21742 | 14.45597 | 33749 ft | 444 kts | 303° |
| 2026-05-05 18:47 | 49.24351 | 14.40133 | 33747 ft | 444 kts | 303° |
| 2026-05-05 18:47 | 49.27996 | 14.32480 | 33751 ft | 444 kts | 303° |
| 2026-05-05 18:48 | 49.31210 | 14.25715 | 33749 ft | 444 kts | 303° |
| 2026-05-05 18:48 | 49.34849 | 14.18033 | 33749 ft | 445 kts | 303° |
| 2026-05-05 18:49 | 49.38458 | 14.10392 | 33750 ft | 445 kts | 303° |
| 2026-05-05 18:49 | 49.42090 | 14.02680 | 33753 ft | 445 kts | 303° |
| 2026-05-05 18:50 | 49.45714 | 13.94966 | 33754 ft | 445 kts | 303° |
| 2026-05-05 18:50 | 49.49335 | 13.87232 | 33760 ft | 445 kts | 303° |
| 2026-05-05 18:51 | 49.52953 | 13.79484 | 33759 ft | 445 kts | 303° |
| 2026-05-05 18:51 | 49.56542 | 13.71776 | 33760 ft | 446 kts | 303° |
| 2026-05-05 18:52 | 49.60151 | 13.64002 | 33761 ft | 445 kts | 302° |
| 2026-05-05 18:52 | 49.63754 | 13.56216 | 33755 ft | 446 kts | 302° |
| 2026-05-05 18:53 | 49.67358 | 13.48408 | 33745 ft | 446 kts | 302° |
| 2026-05-05 18:53 | 49.70929 | 13.40646 | 33747 ft | 446 kts | 303° |
| 2026-05-05 18:54 | 49.74527 | 13.32805 | 33745 ft | 446 kts | 303° |
| 2026-05-05 18:54 | 49.78121 | 13.24949 | 33752 ft | 447 kts | 303° |
| 2026-05-05 18:55 | 49.81690 | 13.17124 | 33756 ft | 448 kts | 303° |
| 2026-05-05 18:55 | 49.85287 | 13.09213 | 33763 ft | 449 kts | 303° |
| 2026-05-05 18:56 | 49.88889 | 13.01268 | 33768 ft | 451 kts | 303° |
| 2026-05-05 18:56 | 49.92209 | 12.93923 | 33774 ft | 452 kts | 303° |
| 2026-05-05 18:57 | 49.94250 | 12.89400 | 33780 ft | 452 kts | 303° |
| 2026-05-05 18:57 | 49.97841 | 12.81421 | 33778 ft | 453 kts | 302° |
| 2026-05-05 18:58 | 50.01453 | 12.73369 | 33778 ft | 455 kts | 302° |
| 2026-05-05 18:58 | 50.05067 | 12.65288 | 33784 ft | 455 kts | 302° |
| 2026-05-05 18:59 | 50.08684 | 12.57177 | 33780 ft | 456 kts | 302° |
| 2026-05-05 18:59 | 50.12269 | 12.49111 | 33781 ft | 456 kts | 302° |
| 2026-05-05 19:00 | 50.15882 | 12.40962 | 33775 ft | 456 kts | 302° |
| 2026-05-05 19:00 | 50.19248 | 12.32631 | 33786 ft | 453 kts | 292° |
| 2026-05-05 19:01 | 50.21340 | 12.23390 | 33806 ft | 450 kts | 285° |
| 2026-05-05 19:01 | 50.23218 | 12.14047 | 33811 ft | 450 kts | 285° |
| 2026-05-05 19:02 | 50.25101 | 12.04774 | 33822 ft | 451 kts | 285° |
| 2026-05-05 19:02 | 50.27027 | 11.95421 | 33834 ft | 451 kts | 285° |
| 2026-05-05 19:03 | 50.28957 | 11.86065 | 33832 ft | 451 kts | 285° |
| 2026-05-05 19:03 | 50.30868 | 11.76766 | 33824 ft | 451 kts | 285° |
| 2026-05-05 19:04 | 50.32784 | 11.67392 | 33836 ft | 452 kts | 285° |
| 2026-05-05 19:04 | 50.34699 | 11.57974 | 33830 ft | 454 kts | 285° |
| 2026-05-05 19:05 | 50.36613 | 11.48514 | 33820 ft | 456 kts | 285° |
| 2026-05-05 19:05 | 50.38512 | 11.39086 | 33808 ft | 457 kts | 285° |
| 2026-05-05 19:06 | 50.40417 | 11.29584 | 33803 ft | 457 kts | 285° |
| 2026-05-05 19:06 | 50.42321 | 11.20040 | 33795 ft | 457 kts | 284° |
| 2026-05-05 19:07 | 50.44213 | 11.10509 | 33808 ft | 457 kts | 284° |
| 2026-05-05 19:07 | 50.46088 | 11.01014 | 33806 ft | 458 kts | 284° |
| 2026-05-05 19:08 | 50.47968 | 10.91450 | 33806 ft | 458 kts | 284° |
| 2026-05-05 19:08 | 50.49830 | 10.81928 | 33810 ft | 458 kts | 284° |
| 2026-05-05 19:09 | 50.51697 | 10.72332 | 33812 ft | 458 kts | 284° |
| 2026-05-05 19:09 | 50.53573 | 10.62738 | 33816 ft | 459 kts | 284° |
| 2026-05-05 19:10 | 50.55470 | 10.53125 | 33804 ft | 459 kts | 284° |
| 2026-05-05 19:10 | 50.57345 | 10.43579 | 33807 ft | 459 kts | 284° |
| 2026-05-05 19:11 | 50.59223 | 10.33951 | 33806 ft | 460 kts | 283° |
| 2026-05-05 19:11 | 50.61093 | 10.24302 | 33803 ft | 460 kts | 283° |
| 2026-05-05 19:12 | 50.62952 | 10.14661 | 33808 ft | 460 kts | 283° |
| 2026-05-05 19:12 | 50.64804 | 10.05003 | 33807 ft | 460 kts | 283° |
| 2026-05-05 19:13 | 50.66641 | 9.95376 | 33805 ft | 460 kts | 283° |
| 2026-05-05 19:13 | 50.68479 | 9.85695 | 33805 ft | 461 kts | 283° |
| 2026-05-05 19:14 | 50.70310 | 9.76003 | 33817 ft | 461 kts | 283° |
| 2026-05-05 19:14 | 50.72129 | 9.66328 | 33811 ft | 462 kts | 283° |
| 2026-05-05 19:15 | 50.73953 | 9.56572 | 33805 ft | 463 kts | 283° |
| 2026-05-05 19:15 | 50.75770 | 9.46798 | 33796 ft | 463 kts | 283° |
| 2026-05-05 19:16 | 50.77569 | 9.37075 | 33799 ft | 464 kts | 282° |
| 2026-05-05 19:16 | 50.79374 | 9.27267 | 33804 ft | 465 kts | 282° |
| 2026-05-05 19:17 | 50.81173 | 9.17442 | 33808 ft | 465 kts | 282° |
| 2026-05-05 19:17 | 50.82963 | 9.07608 | 33807 ft | 464 kts | 282° |
| 2026-05-05 19:18 | 50.84736 | 8.97816 | 33809 ft | 464 kts | 282° |
| 2026-05-05 19:18 | 50.86509 | 8.87976 | 33806 ft | 464 kts | 282° |
| 2026-05-05 19:19 | 50.88273 | 8.78128 | 33809 ft | 464 kts | 282° |
| 2026-05-05 19:19 | 50.90024 | 8.68300 | 33805 ft | 463 kts | 282° |
| 2026-05-05 19:20 | 50.91757 | 8.58522 | 33813 ft | 463 kts | 282° |
| 2026-05-05 19:20 | 50.93486 | 8.48709 | 33820 ft | 463 kts | 282° |
| 2026-05-05 19:21 | 50.95205 | 8.38899 | 33813 ft | 463 kts | 281° |
| 2026-05-05 19:21 | 50.96918 | 8.29067 | 33816 ft | 463 kts | 281° |
| 2026-05-05 19:22 | 50.98626 | 8.19214 | 33820 ft | 462 kts | 281° |
| 2026-05-05 19:22 | 51.00327 | 8.09343 | 33815 ft | 462 kts | 281° |
| 2026-05-05 19:23 | 51.02007 | 7.99541 | 33824 ft | 462 kts | 281° |
| 2026-05-05 19:23 | 51.03685 | 7.89691 | 33823 ft | 462 kts | 281° |
| 2026-05-05 19:24 | 51.05357 | 7.79829 | 33825 ft | 462 kts | 281° |
| 2026-05-05 19:24 | 51.07021 | 7.69951 | 33823 ft | 462 kts | 281° |
| 2026-05-05 19:25 | 51.08396 | 7.61746 | 33822 ft | 462 kts | 281° |
| 2026-05-05 19:25 | 51.10312 | 7.50250 | 33827 ft | 461 kts | 281° |
| 2026-05-05 19:26 | 51.11683 | 7.41976 | 33819 ft | 461 kts | 281° |
| 2026-05-05 19:26 | 51.13310 | 7.32098 | 33826 ft | 462 kts | 281° |
| 2026-05-05 19:27 | 51.14934 | 7.22188 | 33830 ft | 462 kts | 281° |
| 2026-05-05 19:27 | 51.16540 | 7.12329 | 33835 ft | 462 kts | 281° |
| 2026-05-05 19:28 | 51.18145 | 7.02418 | 33858 ft | 462 kts | 280° |
| 2026-05-05 19:28 | 51.19744 | 6.92485 | 33845 ft | 462 kts | 280° |
| 2026-05-05 19:29 | 51.21332 | 6.82560 | 33850 ft | 462 kts | 280° |
| 2026-05-05 19:29 | 51.22902 | 6.72693 | 33861 ft | 461 kts | 280° |
| 2026-05-05 19:30 | 51.24476 | 6.62739 | 33859 ft | 461 kts | 280° |
| 2026-05-05 19:30 | 51.26027 | 6.52870 | 33856 ft | 460 kts | 280° |
| 2026-05-05 19:31 | 51.27577 | 6.42950 | 33861 ft | 460 kts | 280° |
| 2026-05-05 19:31 | 51.29119 | 6.33016 | 33855 ft | 460 kts | 280° |
| 2026-05-05 19:32 | 51.30653 | 6.23071 | 33859 ft | 460 kts | 280° |
| 2026-05-05 19:32 | 51.32169 | 6.13189 | 33854 ft | 459 kts | 279° |
| 2026-05-05 19:33 | 51.33683 | 6.03254 | 33858 ft | 459 kts | 279° |
| 2026-05-05 19:33 | 51.35178 | 5.93386 | 33858 ft | 459 kts | 279° |
| 2026-05-05 19:34 | 51.36674 | 5.83447 | 33862 ft | 458 kts | 279° |
| 2026-05-05 19:35 | 51.38899 | 5.68550 | 33860 ft | 458 kts | 279° |
| 2026-05-05 19:35 | 51.40363 | 5.58676 | 33857 ft | 457 kts | 279° |
| 2026-05-05 19:36 | 51.41822 | 5.48765 | 33857 ft | 456 kts | 279° |
| 2026-05-05 19:36 | 51.43273 | 5.38849 | 33860 ft | 456 kts | 279° |
| 2026-05-05 19:37 | 51.44702 | 5.29020 | 33858 ft | 455 kts | 279° |
| 2026-05-05 19:37 | 51.46131 | 5.19123 | 33861 ft | 454 kts | 279° |
| 2026-05-05 19:38 | 51.47547 | 5.09259 | 33883 ft | 453 kts | 279° |
| 2026-05-05 19:38 | 51.48945 | 4.99452 | 33886 ft | 452 kts | 279° |
| 2026-05-05 19:39 | 51.50340 | 4.89609 | 33888 ft | 451 kts | 279° |
| 2026-05-05 19:39 | 51.51725 | 4.79763 | 33886 ft | 451 kts | 279° |
| 2026-05-05 19:40 | 51.53092 | 4.69992 | 33883 ft | 450 kts | 279° |
| 2026-05-05 19:40 | 51.54452 | 4.60197 | 33880 ft | 449 kts | 279° |
| 2026-05-05 19:41 | 51.55803 | 4.50405 | 33884 ft | 448 kts | 279° |
| 2026-05-05 19:41 | 51.57137 | 4.40674 | 33884 ft | 448 kts | 279° |
| 2026-05-05 19:42 | 51.58471 | 4.30883 | 33883 ft | 447 kts | 278° |
| 2026-05-05 19:42 | 51.59794 | 4.21101 | 33888 ft | 447 kts | 278° |
| 2026-05-05 19:43 | 51.61101 | 4.11372 | 33886 ft | 447 kts | 278° |
| 2026-05-05 19:43 | 51.62409 | 4.01569 | 33892 ft | 447 kts | 278° |
| 2026-05-05 19:44 | 51.63705 | 3.91787 | 33890 ft | 447 kts | 278° |
| 2026-05-05 19:44 | 51.64988 | 3.82045 | 33900 ft | 447 kts | 278° |
| 2026-05-05 19:45 | 51.66271 | 3.72226 | 33901 ft | 447 kts | 278° |
| 2026-05-05 19:45 | 51.67545 | 3.62414 | 33910 ft | 447 kts | 278° |
| 2026-05-05 19:46 | 51.68803 | 3.52656 | 33910 ft | 447 kts | 278° |
| 2026-05-05 19:46 | 51.70063 | 3.42819 | 33913 ft | 447 kts | 278° |
| 2026-05-05 19:47 | 51.71315 | 3.32968 | 33917 ft | 447 kts | 278° |
| 2026-05-05 19:47 | 51.72548 | 3.23208 | 33923 ft | 447 kts | 278° |
| 2026-05-05 19:48 | 51.73057 | 3.13323 | 33923 ft | 439 kts | 261° |
| 2026-05-05 19:48 | 51.72212 | 3.03585 | 33923 ft | 437 kts | 258° |
| 2026-05-05 19:49 | 51.71311 | 2.93941 | 33930 ft | 437 kts | 258° |
| 2026-05-05 19:49 | 51.70447 | 2.84233 | 33929 ft | 437 kts | 258° |
| 2026-05-05 19:50 | 51.69595 | 2.74518 | 33929 ft | 437 kts | 258° |
| 2026-05-05 19:50 | 51.68731 | 2.64801 | 33934 ft | 437 kts | 258° |
| 2026-05-05 19:51 | 51.67866 | 2.55152 | 33933 ft | 437 kts | 258° |
| 2026-05-05 19:51 | 51.66983 | 2.45451 | 33935 ft | 437 kts | 258° |
| 2026-05-05 19:52 | 51.66071 | 2.35741 | 33935 ft | 438 kts | 258° |
| 2026-05-05 19:52 | 51.65158 | 2.26088 | 33939 ft | 438 kts | 258° |
| 2026-05-05 19:53 | 51.64235 | 2.16373 | 33939 ft | 438 kts | 258° |
| 2026-05-05 19:53 | 51.63316 | 2.06648 | 33939 ft | 438 kts | 258° |
| 2026-05-05 19:54 | 51.62451 | 1.96984 | 33942 ft | 439 kts | 258° |
| 2026-05-05 19:54 | 51.61554 | 1.87255 | 33942 ft | 439 kts | 258° |
| 2026-05-05 19:55 | 51.60641 | 1.77530 | 33944 ft | 439 kts | 258° |
| 2026-05-05 19:55 | 51.59733 | 1.67867 | 33942 ft | 439 kts | 258° |
| 2026-05-05 19:56 | 51.59133 | 1.58047 | 33941 ft | 444 kts | 269° |
| 2026-05-05 19:56 | 51.59597 | 1.48179 | 33949 ft | 445 kts | 272° |
| 2026-05-05 19:57 | 51.60083 | 1.38239 | 33948 ft | 445 kts | 271° |
| 2026-05-05 19:57 | 51.60497 | 1.28302 | 33946 ft | 444 kts | 271° |
| 2026-05-05 19:58 | 51.60883 | 1.18439 | 33959 ft | 444 kts | 271° |
| 2026-05-05 19:58 | 51.61262 | 1.08511 | 33960 ft | 444 kts | 271° |
| 2026-05-05 19:59 | 51.61636 | 0.98594 | 33965 ft | 443 kts | 271° |
| 2026-05-05 19:59 | 51.62004 | 0.88755 | 33967 ft | 442 kts | 271° |
| 2026-05-05 20:00 | 51.62425 | 0.78873 | 33965 ft | 441 kts | 271° |
| 2026-05-05 20:00 | 51.62791 | 0.69154 | 33943 ft | 425 kts | 270° |
| 2026-05-05 20:00 | 51.62923 | 0.64436 | 33945 ft | 409 kts | 270° |
| 2026-05-05 20:01 | 51.63059 | 0.59971 | 33955 ft | 402 kts | 271° |
| 2026-05-05 20:01 | 51.63402 | 0.50967 | 33974 ft | 401 kts | 271° |
| 2026-05-05 20:02 | 51.63717 | 0.42000 | 33968 ft | 401 kts | 271° |
| 2026-05-05 20:02 | 51.64016 | 0.33077 | 33968 ft | 401 kts | 271° |
| 2026-05-05 20:03 | 51.64313 | 0.24102 | 33967 ft | 401 kts | 271° |
| 2026-05-05 20:03 | 51.64539 | 0.15131 | 33957 ft | 400 kts | 265° |
| 2026-05-05 20:04 | 51.63747 | 0.06506 | 33945 ft | 377 kts | 257° |
| 2026-05-05 20:04 | 51.63277 | 0.02481 | 33932 ft | 364 kts | 257° |
| 2026-05-05 20:04 | 51.62820 | -0.01522 | 33296 ft | 368 kts | 258° |
| 2026-05-05 20:04 | 51.62371 | -0.05591 | 32696 ft | 371 kts | 258° |
| 2026-05-05 20:05 | 51.61923 | -0.09714 | 32107 ft | 376 kts | 258° |
| 2026-05-05 20:05 | 51.61487 | -0.13884 | 31504 ft | 380 kts | 259° |
| 2026-05-05 20:05 | 51.61121 | -0.18092 | 31147 ft | 377 kts | 260° |
| 2026-05-05 20:05 | 51.60793 | -0.22231 | 31039 ft | 367 kts | 261° |
| 2026-05-05 20:06 | 51.60480 | -0.26240 | 31033 ft | 355 kts | 260° |
| 2026-05-05 20:06 | 51.60171 | -0.30147 | 30782 ft | 349 kts | 260° |
| 2026-05-05 20:06 | 51.59861 | -0.33984 | 30556 ft | 344 kts | 260° |
| 2026-05-05 20:06 | 51.59546 | -0.37804 | 30339 ft | 344 kts | 260° |
| 2026-05-05 20:07 | 51.59232 | -0.41566 | 30076 ft | 347 kts | 260° |
| 2026-05-05 20:07 | 51.58901 | -0.45488 | 29294 ft | 358 kts | 260° |
| 2026-05-05 20:07 | 51.58561 | -0.49496 | 28590 ft | 364 kts | 260° |
| 2026-05-05 20:07 | 51.58215 | -0.53563 | 27892 ft | 369 kts | 261° |
| 2026-05-05 20:08 | 51.57864 | -0.57675 | 27210 ft | 373 kts | 261° |
| 2026-05-05 20:08 | 51.57510 | -0.61819 | 26545 ft | 377 kts | 261° |
| 2026-05-05 20:08 | 51.57149 | -0.66019 | 25889 ft | 380 kts | 262° |
| 2026-05-05 20:08 | 51.56784 | -0.70242 | 25246 ft | 383 kts | 262° |
| 2026-05-05 20:09 | 51.56414 | -0.74506 | 24613 ft | 385 kts | 262° |
| 2026-05-05 20:09 | 51.56042 | -0.78777 | 23999 ft | 387 kts | 262° |
| 2026-05-05 20:09 | 51.55666 | -0.83072 | 23363 ft | 388 kts | 262° |
| 2026-05-05 20:09 | 51.55294 | -0.87296 | 23005 ft | 381 kts | 262° |
| 2026-05-05 20:10 | 51.54925 | -0.91475 | 22725 ft | 372 kts | 262° |
| 2026-05-05 20:10 | 51.54562 | -0.95562 | 22447 ft | 364 kts | 262° |
| 2026-05-05 20:10 | 51.54207 | -0.99547 | 22168 ft | 357 kts | 262° |
| 2026-05-05 20:10 | 51.53861 | -1.03418 | 21996 ft | 347 kts | 262° |
| 2026-05-05 20:11 | 51.53523 | -1.07192 | 21961 ft | 335 kts | 262° |
| 2026-05-05 20:11 | 51.53192 | -1.10866 | 21969 ft | 333 kts | 262° |
| 2026-05-05 20:11 | 51.52858 | -1.14577 | 21976 ft | 335 kts | 263° |
| 2026-05-05 20:11 | 51.52848 | -1.18302 | 21961 ft | 335 kts | 278° |
| 2026-05-05 20:12 | 51.53115 | -1.20747 | 21946 ft | 334 kts | 280° |
| 2026-05-05 20:12 | 51.53577 | -1.24476 | 21286 ft | 342 kts | 281° |
| 2026-05-05 20:12 | 51.54057 | -1.28220 | 20825 ft | 342 kts | 281° |
| 2026-05-05 20:12 | 51.54527 | -1.31951 | 20483 ft | 338 kts | 281° |
| 2026-05-05 20:13 | 51.54981 | -1.35652 | 20137 ft | 336 kts | 281° |
| 2026-05-05 20:13 | 51.55422 | -1.39321 | 19797 ft | 333 kts | 280° |
| 2026-05-05 20:13 | 51.55847 | -1.42917 | 19469 ft | 330 kts | 280° |
| 2026-05-05 20:13 | 51.56277 | -1.46578 | 19138 ft | 328 kts | 280° |
| 2026-05-05 20:14 | 51.56691 | -1.50125 | 18813 ft | 326 kts | 280° |
| 2026-05-05 20:14 | 51.57106 | -1.53697 | 18492 ft | 324 kts | 280° |
| 2026-05-05 20:14 | 51.57519 | -1.57253 | 18153 ft | 323 kts | 280° |
| 2026-05-05 20:14 | 51.57927 | -1.60785 | 17804 ft | 321 kts | 280° |
| 2026-05-05 20:15 | 51.58334 | -1.64311 | 17465 ft | 318 kts | 280° |
| 2026-05-05 20:15 | 51.58683 | -1.67806 | 17133 ft | 315 kts | 277° |
| 2026-05-05 20:15 | 51.58936 | -1.71304 | 16814 ft | 313 kts | 276° |
| 2026-05-05 20:15 | 51.59165 | -1.74729 | 16495 ft | 311 kts | 276° |
| 2026-05-05 20:16 | 51.59403 | -1.78172 | 16188 ft | 309 kts | 276° |
| 2026-05-05 20:16 | 51.59647 | -1.81603 | 15879 ft | 307 kts | 276° |
| 2026-05-05 20:16 | 51.59892 | -1.85012 | 15573 ft | 305 kts | 276° |
| 2026-05-05 20:16 | 51.59983 | -1.88407 | 15247 ft | 304 kts | 262° |
| 2026-05-05 20:17 | 51.59338 | -1.91616 | 14961 ft | 303 kts | 242° |
| 2026-05-05 20:17 | 51.58230 | -1.94483 | 14678 ft | 301 kts | 238° |
| 2026-05-05 20:17 | 51.57078 | -1.97291 | 14371 ft | 300 kts | 238° |
| 2026-05-05 20:17 | 51.55933 | -2.00100 | 14070 ft | 299 kts | 238° |
| 2026-05-05 20:18 | 51.54818 | -2.02864 | 13771 ft | 298 kts | 238° |
| 2026-05-05 20:18 | 51.53697 | -2.05661 | 13434 ft | 297 kts | 238° |
| 2026-05-05 20:18 | 51.52611 | -2.08465 | 13120 ft | 295 kts | 244° |
| 2026-05-05 20:18 | 51.51801 | -2.11474 | 13024 ft | 290 kts | 251° |
| 2026-05-05 20:19 | 51.51128 | -2.14506 | 12991 ft | 285 kts | 252° |
| 2026-05-05 20:19 | 51.50547 | -2.17478 | 12964 ft | 271 kts | 261° |
| 2026-05-05 20:19 | 51.50332 | -2.20368 | 12982 ft | 258 kts | 266° |
| 2026-05-05 20:19 | 51.50203 | -2.23182 | 12975 ft | 245 kts | 267° |
| 2026-05-05 20:20 | 51.50090 | -2.25853 | 12975 ft | 234 kts | 267° |
| 2026-05-05 20:20 | 51.49984 | -2.28425 | 12972 ft | 228 kts | 267° |
| 2026-05-05 20:20 | 51.49881 | -2.30989 | 12700 ft | 232 kts | 267° |
| 2026-05-05 20:20 | 51.49774 | -2.33594 | 12323 ft | 236 kts | 267° |
| 2026-05-05 20:21 | 51.49661 | -2.36284 | 11699 ft | 250 kts | 267° |
| 2026-05-05 20:21 | 51.49535 | -2.39185 | 10798 ft | 276 kts | 267° |
| 2026-05-05 20:21 | 51.49392 | -2.42301 | 10393 ft | 280 kts | 268° |
| 2026-05-05 20:21 | 51.49244 | -2.45404 | 10054 ft | 279 kts | 267° |
| 2026-05-05 20:22 | 51.49090 | -2.48568 | 9287 ft | 288 kts | 267° |
| 2026-05-05 20:22 | 51.48932 | -2.51811 | 8566 ft | 295 kts | 267° |
| 2026-05-05 20:22 | 51.48773 | -2.55122 | 7855 ft | 300 kts | 267° |
| 2026-05-05 20:22 | 51.48625 | -2.58320 | 7192 ft | 304 kts | 267° |
| 2026-05-05 20:23 | 51.48475 | -2.61718 | 6504 ft | 308 kts | 267° |
| 2026-05-05 20:23 | 51.48328 | -2.65147 | 5785 ft | 310 kts | 267° |
| 2026-05-05 20:23 | 51.48175 | -2.68607 | 5300 ft | 305 kts | 267° |
| 2026-05-05 20:23 | 51.48023 | -2.71868 | 5136 ft | 289 kts | 267° |
| 2026-05-05 20:24 | 51.47870 | -2.75005 | 5001 ft | 275 kts | 267° |
| 2026-05-05 20:24 | 51.47718 | -2.77992 | 4853 ft | 262 kts | 267° |
| 2026-05-05 20:24 | 51.47569 | -2.80838 | 4721 ft | 251 kts | 267° |
| 2026-05-05 20:24 | 51.47421 | -2.83584 | 4560 ft | 243 kts | 267° |
| 2026-05-05 20:25 | 51.47271 | -2.86271 | 4218 ft | 243 kts | 267° |
| 2026-05-05 20:25 | 51.47118 | -2.88931 | 3901 ft | 240 kts | 267° |
| 2026-05-05 20:25 | 51.46964 | -2.91604 | 3528 ft | 239 kts | 267° |
| 2026-05-05 20:25 | 51.46809 | -2.94266 | 3176 ft | 239 kts | 267° |
| 2026-05-05 20:26 | 51.46654 | -2.96918 | 2801 ft | 239 kts | 267° |
| 2026-05-05 20:26 | 51.46498 | -2.99566 | 2514 ft | 234 kts | 266° |
| 2026-05-05 20:26 | 51.45982 | -3.01975 | 2474 ft | 236 kts | 231° |
| 2026-05-05 20:26 | 51.44617 | -3.03357 | 2506 ft | 237 kts | 189° |
| 2026-05-05 20:27 | 51.43008 | -3.03052 | 2504 ft | 235 kts | 149° |
| 2026-05-05 20:27 | 51.41753 | -3.01461 | 2513 ft | 231 kts | 138° |
| 2026-05-05 20:27 | 51.40552 | -2.99736 | 2500 ft | 230 kts | 133° |
| 2026-05-05 20:27 | 51.39445 | -2.97968 | 2497 ft | 217 kts | 132° |
| 2026-05-05 20:28 | 51.38405 | -2.96333 | 2487 ft | 201 kts | 132° |
| 2026-05-05 20:28 | 51.37728 | -2.94518 | 2487 ft | 186 kts | 96° |
| 2026-05-05 20:28 | 51.37630 | -2.92503 | 2488 ft | 175 kts | 89° |
| 2026-05-05 20:28 | 51.37593 | -2.90606 | 2499 ft | 168 kts | 86° |
| 2026-05-05 20:29 | 51.37629 | -2.88738 | 2501 ft | 169 kts | 83° |
| 2026-05-05 20:29 | 51.37695 | -2.86814 | 2274 ft | 176 kts | 83° |
| 2026-05-05 20:29 | 51.37766 | -2.84912 | 2062 ft | 167 kts | 83° |
| 2026-05-05 20:29 | 51.37832 | -2.83124 | 1879 ft | 153 kts | 82° |
| 2026-05-05 20:30 | 51.37896 | -2.81471 | 1657 ft | 146 kts | 81° |
| 2026-05-05 20:30 | 51.37959 | -2.79861 | 1463 ft | 148 kts | 82° |
| 2026-05-05 20:30 | 51.38023 | -2.78234 | 1286 ft | 147 kts | 82° |
| 2026-05-05 20:30 | 51.38089 | -2.76592 | 1091 ft | 149 kts | 83° |
| 2026-05-05 20:31 | 51.38150 | -2.74915 | 800 ft | 152 kts | 83° |
| 2026-05-05 20:31 | 51.38213 | -2.73249 | 659 ft | 149 kts | 83° |
| 2026-05-05 20:31 | 51.38270 | -2.71751 | 632 ft | 110 kts | 89° |
| 2026-05-05 20:31 | 51.38301 | -2.70964 | 612 ft | 29 kts | 86° |
| 2026-05-05 20:32 | 51.38341 | -2.70761 | 616 ft | 15 kts | 31° |
| 2026-05-05 20:32 | 51.38405 | -2.70723 | 618 ft | 0 kts | 19° |
| 2026-05-05 20:32 | 51.38423 | -2.70716 | 614 ft | 5 kts | 12° |
| 2026-05-05 20:32 | 51.38459 | -2.70732 | 612 ft | 8 kts | 309° |
| 2026-05-05 20:33 | 51.38466 | -2.70891 | 613 ft | 17 kts | 268° |
| 2026-05-05 20:33 | 51.38467 | -2.70987 | 614 ft | 2 kts | 294° |
| 2026-05-05 20:33 | 51.38519 | -2.71008 | 613 ft | 11 kts | 358° |
| 2026-05-05 20:33 | 51.38553 | -2.71011 | 620 ft | 0 kts | 356° |